createdAt,value
2023-02-18T00:00:30.872Z,76189.53
2023-02-18T00:03:17.873Z,76199.66
2023-02-18T00:05:45.499Z,76223.97
2023-02-18T00:08:12.369Z,76215.88
2023-02-18T00:10:42.095Z,76195.59
2023-02-18T00:13:09.273Z,76246.28
2023-02-18T00:15:37.232Z,76236.16
2023-02-18T00:18:05.623Z,76284.78
2023-02-18T00:20:36.374Z,76254.38
2023-02-18T00:23:03.782Z,76260.47
2023-02-18T00:25:31.033Z,76280.72
2023-02-18T00:27:57.999Z,76292.91
2023-02-18T00:30:25.336Z,76284.78
2023-02-18T00:32:55.628Z,76301.00
2023-02-18T00:35:23.107Z,76292.91
2023-02-18T00:37:52.831Z,76321.28
2023-02-18T00:40:21.072Z,76321.28
2023-02-18T00:42:48.150Z,76311.13
2023-02-18T00:45:15.679Z,76309.13
2023-02-18T00:47:43.034Z,76313.16
2023-02-18T00:50:10.962Z,76278.72
2023-02-18T00:52:38.041Z,76284.78
2023-02-18T00:55:05.876Z,76278.72
2023-02-18T00:57:33.349Z,76292.91
2023-02-18T01:00:00.759Z,76294.91
2023-02-18T01:02:27.776Z,76301.00
2023-02-18T01:04:55.060Z,76301.00
2023-02-18T01:07:22.012Z,76301.00
2023-02-18T01:09:49.709Z,76260.47
2023-02-18T01:12:16.881Z,76232.09
2023-02-18T01:14:44.383Z,76226.00
2023-02-18T01:17:11.448Z,76219.94
2023-02-18T01:19:40.694Z,76219.94
2023-02-18T01:22:07.741Z,76215.88
2023-02-18T01:24:35.452Z,76171.28
2023-02-18T01:27:02.428Z,76191.56
2023-02-18T01:29:29.723Z,76187.50
2023-02-18T01:31:57.217Z,76191.56
2023-02-18T01:34:24.435Z,76189.53
2023-02-18T01:36:51.792Z,76195.59
2023-02-18T01:39:19.354Z,76195.59
2023-02-18T01:41:46.452Z,76185.47
2023-02-18T01:44:23.781Z,76173.31
2023-02-18T01:46:50.898Z,76167.22
2023-02-18T01:49:23.034Z,76149.00
2023-02-18T01:52:02.267Z,76138.84
2023-02-18T01:54:39.939Z,76159.13
2023-02-18T01:57:11.854Z,76171.28
2023-02-18T01:59:45.760Z,76151.00
2023-02-18T02:02:17.102Z,76134.78
2023-02-18T02:04:44.905Z,76159.13
2023-02-18T02:07:12.511Z,76146.97
2023-02-18T02:09:41.268Z,76155.06
2023-02-18T02:12:30.020Z,76155.06
2023-02-18T02:15:10.201Z,76126.69
2023-02-18T02:18:01.857Z,76157.09
2023-02-18T02:20:44.242Z,76146.97
2023-02-18T02:23:42.867Z,76151.00
2023-02-18T02:26:47.025Z,76146.97
2023-02-18T02:29:51.526Z,76149.00
2023-02-18T02:32:36.802Z,76179.38
2023-02-18T02:35:14.051Z,76175.34
2023-02-18T02:38:01.569Z,76179.38
2023-02-18T02:40:44.029Z,76171.28
2023-02-18T02:43:28.146Z,76199.66
2023-02-18T02:45:59.385Z,76185.47
2023-02-18T02:48:52.217Z,76207.78
2023-02-18T02:51:36.158Z,76185.47
2023-02-18T02:54:22.400Z,76219.94
2023-02-18T02:56:49.671Z,76207.78
2023-02-18T02:59:25.535Z,76179.38
2023-02-18T03:02:18.455Z,76207.78
2023-02-18T03:04:51.968Z,76228.03
2023-02-18T03:07:47.585Z,76230.06
2023-02-18T03:10:26.081Z,76232.09
2023-02-18T03:13:31.417Z,76232.09
2023-02-18T03:16:14.374Z,76248.31
2023-02-18T03:18:48.862Z,76244.25
2023-02-18T03:21:26.818Z,76264.53
2023-02-18T03:23:59.991Z,76280.72
2023-02-18T03:26:31.625Z,76260.47
2023-02-18T03:29:02.914Z,76272.63
2023-02-18T03:31:32.206Z,76266.53
2023-02-18T03:34:07.947Z,76272.63
2023-02-18T03:36:37.218Z,76276.69
2023-02-18T03:39:18.816Z,76298.97
2023-02-18T03:41:47.501Z,76290.88
2023-02-18T03:44:14.530Z,76301.00
2023-02-18T03:46:43.724Z,76276.69
2023-02-18T03:49:12.445Z,76301.00
2023-02-18T03:51:41.517Z,76305.06
2023-02-18T03:54:09.198Z,76301.00
2023-02-18T03:56:37.837Z,76296.94
2023-02-18T03:59:04.927Z,76284.78
2023-02-18T04:01:32.502Z,76305.06
2023-02-18T04:03:59.439Z,76296.94
2023-02-18T04:06:27.413Z,76305.06
2023-02-18T04:08:55.274Z,76305.06
2023-02-18T04:11:22.567Z,76317.22
2023-02-18T04:13:49.517Z,76313.16
2023-02-18T04:16:16.874Z,76333.44
2023-02-18T04:18:43.832Z,76323.31
2023-02-18T04:21:11.789Z,76313.16
2023-02-18T04:23:38.761Z,76335.47
2023-02-18T04:26:06.281Z,76333.44
2023-02-18T04:28:33.500Z,76335.47
2023-02-18T04:31:00.802Z,76331.41
2023-02-18T04:33:27.747Z,76337.50
2023-02-18T04:35:55.046Z,76345.59
2023-02-18T04:38:22.006Z,76333.44
2023-02-18T04:40:49.340Z,76323.31
2023-02-18T04:43:16.309Z,76341.53
2023-02-18T04:45:43.535Z,76329.38
2023-02-18T04:48:10.513Z,76345.59
2023-02-18T04:50:37.835Z,76357.75
2023-02-18T04:53:04.999Z,76369.91
2023-02-18T04:55:32.217Z,76378.03
2023-02-18T04:57:59.224Z,76365.88
2023-02-18T05:00:28.604Z,76351.69
2023-02-18T05:02:55.697Z,76345.59
2023-02-18T05:05:24.385Z,76378.03
2023-02-18T05:07:52.285Z,76380.06
2023-02-18T05:10:19.929Z,76384.09
2023-02-18T05:12:47.402Z,76380.06
2023-02-18T05:15:15.438Z,76392.22
2023-02-18T05:17:46.611Z,76371.94
2023-02-18T05:20:13.937Z,76378.03
2023-02-18T05:22:46.013Z,76357.75
2023-02-18T05:25:20.093Z,76373.97
2023-02-18T05:27:47.639Z,76398.28
2023-02-18T05:30:17.363Z,76382.09
2023-02-18T05:32:44.677Z,76369.91
2023-02-18T05:35:12.318Z,76398.28
2023-02-18T05:37:40.141Z,76386.13
2023-02-18T05:40:08.213Z,76402.34
2023-02-18T05:42:36.520Z,76394.25
2023-02-18T05:45:04.529Z,76408.44
2023-02-18T05:47:36.521Z,76386.13
2023-02-18T05:50:08.884Z,76414.50
2023-02-18T05:52:46.753Z,76414.50
2023-02-18T05:55:15.462Z,76410.47
2023-02-18T05:57:46.385Z,76426.69
2023-02-18T06:00:14.390Z,76426.69
2023-02-18T06:02:41.699Z,76422.63
2023-02-18T06:05:09.717Z,76390.19
2023-02-18T06:07:36.831Z,76418.56
2023-02-18T06:10:05.957Z,76428.69
2023-02-18T06:12:33.228Z,76422.63
2023-02-18T06:15:00.536Z,76426.69
2023-02-18T06:17:27.688Z,76430.72
2023-02-18T06:19:55.138Z,76430.72
2023-02-18T06:22:22.615Z,76414.50
2023-02-18T06:24:53.259Z,76422.63
2023-02-18T06:27:21.215Z,76426.69
2023-02-18T06:29:49.502Z,76418.56
2023-02-18T06:32:16.870Z,76438.84
2023-02-18T06:34:44.394Z,76430.72
2023-02-18T06:37:12.141Z,76434.78
2023-02-18T06:39:40.011Z,76446.94
2023-02-18T06:42:07.727Z,76453.03
2023-02-18T06:44:37.609Z,76430.72
2023-02-18T06:47:05.163Z,76436.81
2023-02-18T06:49:32.547Z,76446.94
2023-02-18T06:52:00.114Z,76434.78
2023-02-18T06:54:29.245Z,76455.06
2023-02-18T06:56:57.796Z,76455.06
2023-02-18T06:59:29.148Z,76455.06
2023-02-18T07:01:56.921Z,76434.78
2023-02-18T07:04:27.390Z,76463.16
2023-02-18T07:06:56.146Z,76461.13
2023-02-18T07:09:24.996Z,76444.91
2023-02-18T07:11:56.521Z,76444.91
2023-02-18T07:14:25.153Z,76432.75
2023-02-18T07:16:53.173Z,76402.34
2023-02-18T07:19:21.746Z,76430.72
2023-02-18T07:21:48.783Z,76416.53
2023-02-18T07:24:17.880Z,76422.63
2023-02-18T07:26:46.629Z,76434.78
2023-02-18T07:29:14.414Z,76442.91
2023-02-18T07:31:44.271Z,76430.72
2023-02-18T07:34:12.061Z,76426.69
2023-02-18T07:36:42.008Z,76453.03
2023-02-18T07:39:13.739Z,76426.69
2023-02-18T07:41:41.013Z,76386.13
2023-02-18T07:44:16.087Z,76406.41
2023-02-18T07:46:48.551Z,76426.69
2023-02-18T07:49:18.364Z,76408.44
2023-02-18T07:51:50.189Z,76406.41
2023-02-18T07:54:18.270Z,76392.22
2023-02-18T07:56:46.135Z,76410.47
2023-02-18T07:59:19.860Z,76369.91
2023-02-18T08:01:49.451Z,76418.56
2023-02-18T08:04:19.450Z,76406.41
2023-02-18T08:06:49.383Z,76422.63
2023-02-18T08:09:18.188Z,76402.34
2023-02-18T08:11:45.867Z,76386.13
2023-02-18T08:14:13.331Z,76410.47
2023-02-18T08:16:44.261Z,76378.03
2023-02-18T08:19:13.116Z,76394.25
2023-02-18T08:21:40.089Z,76390.19
2023-02-18T08:24:08.741Z,76392.22
2023-02-18T08:26:37.976Z,76402.34
2023-02-18T08:29:11.209Z,76386.13
2023-02-18T08:31:40.028Z,76386.13
2023-02-18T08:34:09.384Z,76373.97
2023-02-18T08:37:09.273Z,76371.94
2023-02-18T08:39:39.786Z,76341.53
2023-02-18T08:45:13.640Z,76353.72
2023-02-18T08:48:17.372Z,76345.59
2023-02-18T08:50:31.220Z,76345.59
2023-02-18T08:53:30.050Z,76345.59
2023-02-18T08:55:59.819Z,76341.53
2023-02-18T08:58:28.672Z,76345.59
2023-02-18T09:02:16.449Z,76345.59
2023-02-18T09:04:44.596Z,76373.97
2023-02-18T09:07:11.794Z,76365.88
2023-02-18T09:09:39.864Z,76369.91
2023-02-18T09:12:10.965Z,76361.81
2023-02-18T09:14:38.894Z,76369.91
2023-02-18T09:17:05.924Z,76376.00
2023-02-18T09:19:33.693Z,76404.38
2023-02-18T09:22:02.202Z,76390.19
2023-02-18T09:24:29.789Z,76378.03
2023-02-18T09:26:57.925Z,76394.25
2023-02-18T09:29:25.182Z,76390.19
2023-02-18T09:31:53.048Z,76434.78
2023-02-18T09:34:21.093Z,76369.91
2023-02-18T09:36:49.102Z,76353.72
2023-02-18T09:39:19.403Z,76345.59
2023-02-18T09:41:56.511Z,76343.56
2023-02-18T09:44:46.866Z,76333.44
2023-02-18T09:47:26.757Z,76373.97
2023-02-18T09:50:00.248Z,76373.97
2023-02-18T09:52:34.708Z,76386.13
2023-02-18T09:55:17.653Z,76373.97
2023-02-18T09:57:48.950Z,76388.16
2023-02-18T10:00:36.193Z,76367.88
2023-02-18T10:03:14.986Z,76394.25
2023-02-18T10:06:05.468Z,76373.97
2023-02-18T10:08:45.500Z,76390.19
2023-02-18T11:50:50.569Z,76337.50
2023-02-18T11:53:33.814Z,76345.59
2023-02-18T11:56:05.210Z,76329.38
2023-02-18T11:58:41.531Z,76301.00
2023-02-18T12:01:21.037Z,76301.00
2023-02-18T12:08:13.313Z,76303.03
2023-02-18T12:10:49.265Z,76292.91
2023-02-18T12:13:22.963Z,76288.84
2023-02-18T12:15:50.066Z,76288.84
2023-02-18T12:18:20.426Z,76305.06
2023-02-18T12:21:55.833Z,76280.72
2023-02-18T12:24:52.508Z,76262.50
2023-02-18T12:27:25.414Z,76284.78
2023-02-18T12:29:58.300Z,76256.41
2023-02-18T12:32:52.406Z,76234.13
2023-02-18T13:20:42.732Z,76248.31
2023-02-18T13:23:22.884Z,76260.47
2023-02-18T13:25:59.495Z,76272.63
2023-02-18T13:28:42.782Z,76272.63
2023-02-18T13:31:35.440Z,76280.72
2023-02-18T13:34:36.504Z,76266.53
2023-02-18T13:37:30.914Z,76280.72
2023-02-18T13:40:00.483Z,76278.72
2023-02-18T13:42:30.633Z,76288.84
2023-02-18T13:44:57.610Z,76284.78
2023-02-18T13:47:42.787Z,76301.00
2023-02-18T13:50:21.989Z,76303.03
2023-02-18T13:52:51.579Z,76284.78
2023-02-18T13:55:26.071Z,76280.72
2023-02-18T13:57:55.547Z,76280.72
2023-02-18T14:00:25.972Z,76292.91
2023-02-18T14:03:20.170Z,76288.84
2023-02-18T14:05:47.539Z,76294.91
2023-02-18T14:08:31.074Z,76292.91
2023-02-18T14:11:12.716Z,76305.06
2023-02-18T14:13:42.798Z,76305.06
2023-02-18T14:16:10.933Z,76296.94
2023-02-18T14:18:41.411Z,76296.94
2023-02-18T14:21:14.607Z,76309.13
2023-02-18T14:24:04.130Z,76296.94
2023-02-18T14:26:51.022Z,76292.91
2023-02-18T14:29:30.172Z,76305.06
2023-02-18T14:32:02.326Z,76298.97
2023-02-18T14:34:38.697Z,76301.00
2023-02-18T14:37:29.978Z,76305.06
2023-02-18T14:40:22.070Z,76305.06
2023-02-18T14:43:33.367Z,76298.97
2023-02-18T14:46:08.369Z,76301.00
2023-02-18T14:49:07.471Z,76296.94
2023-02-18T14:51:35.407Z,76280.72
2023-02-18T14:54:06.650Z,76292.91
2023-02-18T14:56:39.713Z,76301.00
2023-02-18T14:59:07.177Z,76301.00
2023-02-18T15:01:36.271Z,76301.00
2023-02-18T15:04:04.797Z,76294.91
2023-02-18T15:06:33.928Z,76268.56
2023-02-18T15:09:04.066Z,76321.28
2023-02-18T15:11:39.760Z,76337.50
2023-02-18T15:14:17.498Z,76349.66
2023-02-18T15:16:46.762Z,76365.88
2023-02-18T15:19:20.107Z,76365.88
2023-02-18T15:21:50.264Z,76388.16
2023-02-18T15:24:37.811Z,76400.31
2023-02-18T15:27:23.856Z,76426.69
2023-02-18T15:29:53.518Z,76467.22
2023-02-18T15:32:27.548Z,76499.66
2023-02-18T15:35:03.919Z,76540.19
2023-02-18T15:37:31.891Z,76580.72
2023-02-18T15:39:59.022Z,76635.47
2023-02-18T15:42:31.568Z,76669.94
2023-02-18T15:45:04.375Z,76706.41
2023-02-18T15:47:32.680Z,76738.84
2023-02-18T15:50:02.851Z,76746.97
2023-02-18T15:52:33.214Z,76742.91
2023-02-18T15:55:34.372Z,76763.16
2023-02-18T15:58:05.524Z,76751.00
2023-02-18T16:00:39.349Z,76755.06
2023-02-18T16:03:16.093Z,76763.16
2023-02-18T16:05:43.328Z,76748.97
2023-02-18T16:08:25.472Z,76730.75
2023-02-18T16:11:03.035Z,76730.75
2023-02-18T16:13:31.902Z,76722.63
2023-02-18T16:16:01.114Z,76726.69
2023-02-18T16:18:39.579Z,76724.66
2023-02-18T16:21:31.440Z,76726.69
2023-02-18T16:24:01.390Z,76726.69
2023-02-18T16:26:40.239Z,76718.56
2023-02-18T16:29:17.033Z,76724.66
2023-02-18T16:31:44.384Z,76718.56
2023-02-18T16:34:11.695Z,76714.53
2023-02-18T16:36:58.741Z,76706.41
2023-02-18T16:39:27.910Z,76706.41
2023-02-18T16:41:54.868Z,76718.56
2023-02-18T16:44:22.333Z,76726.69
2023-02-18T16:46:49.705Z,76726.69
2023-02-18T16:49:17.962Z,76726.69
2023-02-18T16:51:44.941Z,76734.78
2023-02-18T16:54:13.068Z,76734.78
2023-02-18T16:56:40.819Z,76734.78
2023-02-18T16:59:08.495Z,76730.75
2023-02-18T17:01:42.713Z,76726.69
2023-02-18T17:04:20.087Z,76734.78
2023-02-18T17:06:47.396Z,76734.78
2023-02-18T17:09:22.301Z,76722.63
2023-02-18T17:11:52.007Z,76730.75
2023-02-18T17:14:21.761Z,76726.69
2023-02-18T17:16:51.455Z,76714.53
2023-02-18T17:19:18.735Z,76718.56
2023-02-18T17:21:48.359Z,76708.44
2023-02-18T17:24:18.607Z,76722.63
2023-02-18T17:26:45.678Z,76702.34
2023-02-18T17:29:13.810Z,76706.41
2023-02-18T17:31:47.553Z,76708.44
2023-02-18T17:34:21.834Z,76712.50
2023-02-18T17:36:48.694Z,76704.38
2023-02-18T17:39:18.038Z,76708.44
2023-02-18T17:41:45.524Z,76712.50
2023-02-18T17:44:21.169Z,76710.47
2023-02-18T17:46:49.975Z,76698.31
2023-02-18T17:49:17.362Z,76698.31
2023-02-18T17:51:44.611Z,76706.41
2023-02-18T17:54:14.718Z,76698.31
2023-02-18T17:56:42.417Z,76692.22
2023-02-18T17:59:09.729Z,76698.31
2023-02-18T18:01:37.210Z,76696.28
2023-02-18T18:04:04.706Z,76706.41
2023-02-18T18:06:32.427Z,76698.31
2023-02-18T18:08:59.570Z,76690.19
2023-02-18T18:11:26.756Z,76690.19
2023-02-18T18:13:54.295Z,76698.31
2023-02-18T18:16:21.853Z,76690.19
2023-02-18T18:18:49.299Z,76694.25
2023-02-18T18:21:32.766Z,76698.31
2023-02-18T18:24:00.522Z,76706.41
2023-02-18T18:26:27.993Z,76704.38
2023-02-18T18:28:56.400Z,76698.31
2023-02-18T18:31:23.703Z,76702.34
2023-02-18T18:33:53.569Z,76706.41
2023-02-18T18:36:22.137Z,76712.50
2023-02-18T18:38:49.466Z,76712.50
2023-02-18T18:41:19.682Z,76698.31
2023-02-18T18:43:47.136Z,76702.34
2023-02-18T18:46:14.110Z,76720.59
2023-02-18T18:48:42.001Z,76718.56
2023-02-18T18:51:16.013Z,76718.56
2023-02-18T18:53:43.701Z,76722.63
2023-02-18T18:56:12.225Z,76722.63
2023-02-18T18:58:39.565Z,76722.63
2023-02-18T19:01:15.717Z,76722.63
2023-02-18T19:03:43.523Z,76740.88
2023-02-18T19:06:12.125Z,76726.69
2023-02-18T19:08:39.766Z,76730.75
2023-02-18T19:11:07.108Z,76734.78
2023-02-18T19:13:36.233Z,76742.91
2023-02-18T19:16:18.425Z,76767.22
2023-02-18T19:18:46.619Z,76769.25
2023-02-18T19:21:13.813Z,76771.28
2023-02-18T19:23:41.193Z,76779.38
2023-02-18T19:26:08.578Z,76767.22
2023-02-18T19:28:36.159Z,76771.28
2023-02-18T19:31:11.304Z,76777.38
2023-02-18T19:33:39.572Z,76779.38
2023-02-18T19:36:11.707Z,76775.34
2023-02-18T19:38:39.371Z,76797.63
2023-02-18T19:41:08.932Z,76787.50
2023-02-18T19:43:36.558Z,76767.22
2023-02-18T19:46:12.192Z,76779.38
2023-02-18T19:48:40.394Z,76779.38
2023-02-18T19:51:08.869Z,76795.59
2023-02-18T19:53:36.321Z,76791.56
2023-02-18T19:56:07.414Z,76799.66
2023-02-18T19:58:35.508Z,76791.56
2023-02-18T20:01:03.112Z,76795.59
2023-02-18T20:03:30.662Z,76789.53
2023-02-18T20:05:57.832Z,76807.78
2023-02-18T20:08:25.093Z,76819.94
2023-02-18T20:10:59.060Z,76813.84
2023-02-18T20:13:27.134Z,76828.03
2023-02-18T20:15:54.948Z,76819.94
2023-02-18T20:18:22.426Z,76824.00
2023-02-18T20:20:50.306Z,76819.94
2023-02-18T20:23:18.274Z,76828.03
2023-02-18T20:25:47.655Z,76832.09
2023-02-18T20:28:15.565Z,76828.03
2023-02-18T20:30:42.817Z,76840.22
2023-02-18T20:33:10.423Z,76840.22
2023-02-18T20:35:37.593Z,76852.38
2023-02-18T20:38:05.107Z,76860.47
2023-02-18T20:40:32.701Z,76868.59
2023-02-18T20:42:59.977Z,76864.53
2023-02-18T20:45:26.874Z,76858.44
2023-02-18T20:47:54.132Z,76860.47
2023-02-18T20:50:21.862Z,76864.53
2023-02-18T20:52:49.093Z,76856.44
2023-02-18T20:55:16.132Z,76848.31
2023-02-18T20:57:43.623Z,76856.44
2023-02-18T21:00:11.770Z,76860.47
2023-02-18T21:02:39.117Z,76866.56
2023-02-18T21:05:06.536Z,76864.53
2023-02-18T21:07:33.920Z,76870.63
2023-02-18T21:10:00.976Z,76872.66
2023-02-18T21:12:28.226Z,76864.53
2023-02-18T21:14:55.221Z,76862.50
2023-02-18T21:17:22.978Z,76864.53
2023-02-18T21:19:49.930Z,76864.53
2023-02-18T21:22:17.171Z,76864.53
2023-02-18T21:24:44.252Z,76870.63
2023-02-18T21:27:11.687Z,76868.59
2023-02-18T21:29:38.640Z,76872.66
2023-02-18T21:32:06.061Z,76884.81
2023-02-18T21:34:32.991Z,76880.75
2023-02-18T21:37:00.547Z,76901.03
2023-02-18T21:39:27.439Z,76901.03
2023-02-18T21:41:54.645Z,76894.94
2023-02-18T21:44:29.943Z,76896.97
2023-02-18T21:47:03.933Z,76913.19
2023-02-18T21:49:30.980Z,76925.34
2023-02-18T21:52:02.254Z,76931.44
2023-02-18T21:54:33.739Z,76939.53
2023-02-18T21:57:03.922Z,76941.56
2023-02-18T21:59:33.016Z,76957.78
2023-02-18T22:02:00.468Z,76976.03
2023-02-18T22:04:32.861Z,76982.13
2023-02-18T22:07:00.475Z,76996.31
2023-02-18T22:09:27.743Z,77002.41
2023-02-18T22:11:55.185Z,77012.53
2023-02-18T22:14:22.731Z,77018.63
2023-02-18T22:16:49.649Z,77026.72
2023-02-18T22:19:16.872Z,77022.66
2023-02-18T22:21:44.502Z,77034.84
2023-02-18T22:24:13.868Z,77038.88
2023-02-18T22:26:41.574Z,77047.00
2023-02-18T22:29:10.631Z,77051.06
2023-02-18T22:31:39.080Z,77063.22
2023-02-18T22:34:06.352Z,77051.06
2023-02-18T22:36:33.542Z,77075.38
2023-02-18T22:39:01.567Z,77075.38
2023-02-18T22:41:30.712Z,77067.28
2023-02-18T22:44:00.427Z,77079.44
2023-02-18T22:46:28.418Z,77087.53
2023-02-18T22:48:56.543Z,77103.75
2023-02-18T22:51:26.847Z,77107.81
2023-02-18T22:53:55.570Z,77103.75
2023-02-18T22:56:24.660Z,77117.94
2023-02-18T22:58:53.440Z,77113.91
2023-02-18T23:01:23.269Z,77111.88
2023-02-18T23:03:52.513Z,77117.94
2023-02-18T23:06:21.356Z,77119.97
2023-02-18T23:08:49.847Z,77115.94
2023-02-18T23:11:19.528Z,77113.91
2023-02-18T23:14:07.844Z,77128.09
2023-02-18T23:16:56.570Z,77119.97
2023-02-18T23:19:25.582Z,77111.88
2023-02-18T23:21:53.186Z,77111.88
2023-02-18T23:24:21.038Z,77111.88
2023-02-18T23:26:48.905Z,77119.97
2023-02-18T23:29:16.413Z,77111.88
2023-02-18T23:31:43.552Z,77103.75
2023-02-18T23:34:15.489Z,77115.94
2023-02-18T23:36:43.122Z,77124.03
2023-02-18T23:39:13.487Z,77132.16
2023-02-18T23:41:40.764Z,77128.09
2023-02-18T23:44:11.772Z,77115.94
2023-02-18T23:46:39.424Z,77119.97
2023-02-18T23:49:06.784Z,77126.06
2023-02-18T23:51:33.911Z,77136.19
2023-02-18T23:54:03.781Z,77128.09
2023-02-18T23:56:30.770Z,77136.19
2023-02-18T23:59:00.595Z,77138.22
